Terminal Aerodrome Forecast
Issued by NWS

Home | Current Version | Previous Version | Graphics & Text | Print | Product List | Glossary On
Versions: 1 2 3 4 5 6 7 8 9 10 11 12 13 14 15 16 17 18 19
000
FTUS43 KTOP 311500 AAA
TAFFOE
TAF AMD
KFOE 311552Z 3116/0112 16006KT 3SM -RA BR BKN003 OVC035
      TEMPO 3116/3118 6SM BR OVC040
     FM311900 16009KT 4SM RA BR OVC013
     FM010100 18007KT 3SM -RA BR OVC006
     FM011000 28006KT 3SM -RASN BR OVC004=

USA.gov is the U.S. government's official web portal to all federal, state and local government web resources and services.